Terminal Aerodrome Forecast
Issued by NWS

Home | Current Version | Previous Version | Text Only | Print | Product List | Glossary On
Versions: 1 2 3 4 5 6 7 8 9 10 11 12 13 14 15 16 17 18
000
FTUS45 KGGW 290900 AAA
TAFSDY
TAF AMD
KSDY 290914Z 2909/3006 32015KT P6SM OVC013
     FM291200 33015KT P6SM VCSH OVC020
     FM291800 33015KT 1SM -SN BLSN OVC014
     FM300000 32014KT P6SM VCSH BKN026
      AMD LTD TO CLD VIS AND WIND=

USA.gov is the U.S. government's official web portal to all federal, state and local government web resources and services.